sensor_id;sensor_type;location;lat;lon;timestamp;P1;durP1;ratioP1;P2;durP2;ratioP2
69917;SDS011;57203;42.672;23.334;2023-02-01T00:01:20;6.2;;;4.7;;
69917;SDS011;57203;42.672;23.334;2023-02-01T00:02:20;5.4;;;3.8;;
69917;SDS011;57203;42.672;23.334;2023-02-01T00:03:21;5.8;;;4.8;;
69917;SDS011;57203;42.672;23.334;2023-02-01T00:04:21;5.2;;;4.4;;
69917;SDS011;57203;42.672;23.334;2023-02-01T00:06:21;5.1;;;3.9;;
69917;SDS011;57203;42.672;23.334;2023-02-01T00:07:21;5.2;;;4.6;;
69917;SDS011;57203;42.672;23.334;2023-02-01T00:08:21;6.8;;;4.5;;
69917;SDS011;57203;42.672;23.334;2023-02-01T00:09:21;7.3;;;4.0;;
69917;SDS011;57203;42.672;23.334;2023-02-01T00:10:22;4.9;;;4.1;;
69917;SDS011;57203;42.672;23.334;2023-02-01T00:12:22;5.9;;;3.9;;
69917;SDS011;57203;42.672;23.334;2023-02-01T00:13:22;4.5;;;4.0;;
69917;SDS011;57203;42.672;23.334;2023-02-01T00:14:22;5.8;;;3.4;;
69917;SDS011;57203;42.672;23.334;2023-02-01T00:15:22;4.5;;;2.6;;
69917;SDS011;57203;42.672;23.334;2023-02-01T00:16:23;3.8;;;3.4;;
69917;SDS011;57203;42.672;23.334;2023-02-01T00:17:23;4.5;;;4.1;;
69917;SDS011;57203;42.672;23.334;2023-02-01T00:18:23;5.7;;;3.1;;
69917;SDS011;57203;42.672;23.334;2023-02-01T00:19:23;5.4;;;4.0;;
69917;SDS011;57203;42.672;23.334;2023-02-01T00:21:23;6.3;;;4.3;;
69917;SDS011;57203;42.672;23.334;2023-02-01T00:23:23;8.2;;;3.4;;
69917;SDS011;57203;42.672;23.334;2023-02-01T00:24:24;4.8;;;3.3;;
69917;SDS011;57203;42.672;23.334;2023-02-01T00:25:24;5.2;;;3.6;;
69917;SDS011;57203;42.672;23.334;2023-02-01T00:26:25;5.4;;;4.4;;
69917;SDS011;57203;42.672;23.334;2023-02-01T00:27:24;6.0;;;4.3;;
69917;SDS011;57203;42.672;23.334;2023-02-01T00:28:24;5.8;;;3.8;;
69917;SDS011;57203;42.672;23.334;2023-02-01T00:29:24;8.0;;;4.2;;
69917;SDS011;57203;42.672;23.334;2023-02-01T00:30:24;5.2;;;3.9;;
69917;SDS011;57203;42.672;23.334;2023-02-01T00:31:24;5.2;;;4.5;;
69917;SDS011;57203;42.672;23.334;2023-02-01T00:32:25;6.5;;;4.0;;
69917;SDS011;57203;42.672;23.334;2023-02-01T00:33:25;6.5;;;4.5;;
69917;SDS011;57203;42.672;23.334;2023-02-01T00:34:25;6.1;;;4.1;;
69917;SDS011;57203;42.672;23.334;2023-02-01T00:35:25;6.1;;;4.0;;
69917;SDS011;57203;42.672;23.334;2023-02-01T00:36:25;6.3;;;3.8;;
69917;SDS011;57203;42.672;23.334;2023-02-01T00:37:25;4.6;;;4.0;;
69917;SDS011;57203;42.672;23.334;2023-02-01T00:38:26;6.3;;;4.5;;
69917;SDS011;57203;42.672;23.334;2023-02-01T00:39:26;5.4;;;4.2;;
69917;SDS011;57203;42.672;23.334;2023-02-01T00:40:26;6.8;;;4.1;;
69917;SDS011;57203;42.672;23.334;2023-02-01T00:42:26;5.0;;;3.6;;
69917;SDS011;57203;42.672;23.334;2023-02-01T00:43:26;4.6;;;3.8;;
69917;SDS011;57203;42.672;23.334;2023-02-01T00:45:26;4.2;;;4.2;;
69917;SDS011;57203;42.672;23.334;2023-02-01T00:46:27;6.0;;;2.9;;
69917;SDS011;57203;42.672;23.334;2023-02-01T00:47:27;4.3;;;3.6;;
69917;SDS011;57203;42.672;23.334;2023-02-01T00:48:27;3.9;;;3.3;;
69917;SDS011;57203;42.672;23.334;2023-02-01T00:49:27;5.1;;;4.0;;
69917;SDS011;57203;42.672;23.334;2023-02-01T00:50:27;5.1;;;3.6;;
69917;SDS011;57203;42.672;23.334;2023-02-01T00:51:28;5.6;;;4.0;;
69917;SDS011;57203;42.672;23.334;2023-02-01T00:52:27;5.2;;;3.5;;
69917;SDS011;57203;42.672;23.334;2023-02-01T00:53:28;3.9;;;4.1;;
69917;SDS011;57203;42.672;23.334;2023-02-01T00:54:28;6.4;;;3.8;;
69917;SDS011;57203;42.672;23.334;2023-02-01T00:55:28;4.5;;;3.7;;
69917;SDS011;57203;42.672;23.334;2023-02-01T00:56:28;4.3;;;3.8;;
69917;SDS011;57203;42.672;23.334;2023-02-01T00:57:28;5.5;;;3.5;;
69917;SDS011;57203;42.672;23.334;2023-02-01T00:58:28;4.5;;;3.1;;
69917;SDS011;57203;42.672;23.334;2023-02-01T00:59:28;3.7;;;3.2;;
69917;SDS011;57203;42.672;23.334;2023-02-01T01:01:29;5.3;;;3.5;;
69917;SDS011;57203;42.672;23.334;2023-02-01T01:02:29;4.8;;;3.8;;
69917;SDS011;57203;42.672;23.334;2023-02-01T01:03:29;4.2;;;3.4;;
69917;SDS011;57203;42.672;23.334;2023-02-01T01:04:29;6.0;;;3.7;;
69917;SDS011;57203;42.672;23.334;2023-02-01T01:05:29;5.4;;;2.8;;
69917;SDS011;57203;42.672;23.334;2023-02-01T01:06:30;3.5;;;3.0;;
69917;SDS011;57203;42.672;23.334;2023-02-01T01:07:29;4.3;;;3.1;;
69917;SDS011;57203;42.672;23.334;2023-02-01T01:08:29;4.6;;;3.2;;
69917;SDS011;57203;42.672;23.334;2023-02-01T01:09:29;5.6;;;3.0;;
69917;SDS011;57203;42.672;23.334;2023-02-01T01:10:30;3.4;;;3.2;;
69917;SDS011;57203;42.672;23.334;2023-02-01T01:11:31;4.1;;;3.5;;
69917;SDS011;57203;42.672;23.334;2023-02-01T01:12:30;6.3;;;3.2;;
69917;SDS011;57203;42.672;23.334;2023-02-01T01:13:30;4.6;;;3.4;;
69917;SDS011;57203;42.672;23.334;2023-02-01T01:14:30;4.8;;;3.1;;
69917;SDS011;57203;42.672;23.334;2023-02-01T01:15:30;3.6;;;3.3;;
69917;SDS011;57203;42.672;23.334;2023-02-01T01:16:31;3.6;;;3.4;;
69917;SDS011;57203;42.672;23.334;2023-02-01T01:17:31;4.4;;;2.8;;
69917;SDS011;57203;42.672;23.334;2023-02-01T01:18:31;4.4;;;3.0;;
69917;SDS011;57203;42.672;23.334;2023-02-01T01:19:31;4.8;;;3.4;;
69917;SDS011;57203;42.672;23.334;2023-02-01T01:20:33;4.4;;;3.1;;
69917;SDS011;57203;42.672;23.334;2023-02-01T01:21:31;4.4;;;2.9;;
69917;SDS011;57203;42.672;23.334;2023-02-01T01:22:31;3.8;;;2.7;;
69917;SDS011;57203;42.672;23.334;2023-02-01T01:23:32;4.3;;;2.8;;
69917;SDS011;57203;42.672;23.334;2023-02-01T01:24:32;4.3;;;3.3;;
69917;SDS011;57203;42.672;23.334;2023-02-01T01:25:32;5.2;;;3.1;;
69917;SDS011;57203;42.672;23.334;2023-02-01T01:26:32;5.5;;;3.3;;
69917;SDS011;57203;42.672;23.334;2023-02-01T01:27:32;3.6;;;3.4;;
69917;SDS011;57203;42.672;23.334;2023-02-01T01:28:32;4.1;;;2.8;;
69917;SDS011;57203;42.672;23.334;2023-02-01T01:29:32;6.2;;;3.0;;
69917;SDS011;57203;42.672;23.334;2023-02-01T01:30:33;5.1;;;2.5;;
69917;SDS011;57203;42.672;23.334;2023-02-01T01:32:33;3.2;;;2.8;;
69917;SDS011;57203;42.672;23.334;2023-02-01T01:33:33;5.4;;;2.7;;
69917;SDS011;57203;42.672;23.334;2023-02-01T01:34:33;5.2;;;3.1;;
69917;SDS011;57203;42.672;23.334;2023-02-01T01:35:33;5.0;;;2.5;;
69917;SDS011;57203;42.672;23.334;2023-02-01T01:36:33;4.3;;;2.7;;
69917;SDS011;57203;42.672;23.334;2023-02-01T01:38:34;5.1;;;2.8;;
69917;SDS011;57203;42.672;23.334;2023-02-01T01:39:34;4.7;;;2.6;;
69917;SDS011;57203;42.672;23.334;2023-02-01T01:40:34;4.5;;;2.7;;
69917;SDS011;57203;42.672;23.334;2023-02-01T01:41:34;3.8;;;2.6;;
69917;SDS011;57203;42.672;23.334;2023-02-01T01:42:36;3.7;;;2.7;;
69917;SDS011;57203;42.672;23.334;2023-02-01T01:45:34;4.2;;;2.8;;
69917;SDS011;57203;42.672;23.334;2023-02-01T01:46:36;6.3;;;2.9;;
69917;SDS011;57203;42.672;23.334;2023-02-01T01:47:36;3.7;;;2.6;;
69917;SDS011;57203;42.672;23.334;2023-02-01T01:48:35;5.5;;;2.5;;
69917;SDS011;57203;42.672;23.334;2023-02-01T01:51:36;3.1;;;2.2;;
69917;SDS011;57203;42.672;23.334;2023-02-01T01:52:35;3.0;;;2.5;;
69917;SDS011;57203;42.672;23.334;2023-02-01T01:53:37;6.5;;;2.6;;
69917;SDS011;57203;42.672;23.334;2023-02-01T01:55:36;2.8;;;2.5;;
69917;SDS011;57203;42.672;23.334;2023-02-01T01:56:36;3.6;;;2.6;;
69917;SDS011;57203;42.672;23.334;2023-02-01T01:57:37;4.1;;;3.1;;
69917;SDS011;57203;42.672;23.334;2023-02-01T01:58:36;6.0;;;2.8;;
69917;SDS011;57203;42.672;23.334;2023-02-01T01:59:37;3.7;;;2.5;;
69917;SDS011;57203;42.672;23.334;2023-02-01T02:00:37;3.0;;;2.3;;
69917;SDS011;57203;42.672;23.334;2023-02-01T02:01:37;3.7;;;2.8;;
69917;SDS011;57203;42.672;23.334;2023-02-01T02:02:37;3.1;;;2.7;;
69917;SDS011;57203;42.672;23.334;2023-02-01T02:03:37;4.7;;;2.9;;
69917;SDS011;57203;42.672;23.334;2023-02-01T02:04:37;5.3;;;2.6;;
69917;SDS011;57203;42.672;23.334;2023-02-01T02:05:37;3.7;;;2.4;;
69917;SDS011;57203;42.672;23.334;2023-02-01T02:06:39;4.9;;;3.2;;
69917;SDS011;57203;42.672;23.334;2023-02-01T02:07:39;3.9;;;2.6;;
69917;SDS011;57203;42.672;23.334;2023-02-01T02:08:38;3.6;;;3.0;;
69917;SDS011;57203;42.672;23.334;2023-02-01T02:09:38;5.1;;;2.9;;
69917;SDS011;57203;42.672;23.334;2023-02-01T02:10:38;4.0;;;2.8;;
69917;SDS011;57203;42.672;23.334;2023-02-01T02:11:38;3.3;;;3.0;;
69917;SDS011;57203;42.672;23.334;2023-02-01T02:12:38;4.2;;;2.6;;
69917;SDS011;57203;42.672;23.334;2023-02-01T02:13:39;3.7;;;2.9;;
69917;SDS011;57203;42.672;23.334;2023-02-01T02:14:38;3.7;;;3.0;;
69917;SDS011;57203;42.672;23.334;2023-02-01T02:15:40;4.0;;;2.6;;
69917;SDS011;57203;42.672;23.334;2023-02-01T02:16:40;3.9;;;2.7;;
69917;SDS011;57203;42.672;23.334;2023-02-01T02:17:40;3.9;;;2.8;;
69917;SDS011;57203;42.672;23.334;2023-02-01T02:18:41;3.7;;;2.4;;
69917;SDS011;57203;42.672;23.334;2023-02-01T02:21:47;3.8;;;2.5;;
69917;SDS011;57203;42.672;23.334;2023-02-01T02:22:44;3.6;;;2.7;;
69917;SDS011;57203;42.672;23.334;2023-02-01T02:25:44;3.4;;;3.0;;
69917;SDS011;57203;42.672;23.334;2023-02-01T02:28:48;4.8;;;2.9;;
69917;SDS011;57203;42.672;23.334;2023-02-01T02:29:41;4.2;;;2.5;;
69917;SDS011;57203;42.672;23.334;2023-02-01T02:30:44;3.4;;;3.0;;
69917;SDS011;57203;42.672;23.334;2023-02-01T02:31:46;4.6;;;2.4;;
69917;SDS011;57203;42.672;23.334;2023-02-01T02:34:41;5.6;;;2.8;;
69917;SDS011;57203;42.672;23.334;2023-02-01T02:35:42;3.2;;;2.7;;
69917;SDS011;57203;42.672;23.334;2023-02-01T02:36:43;5.1;;;2.5;;
69917;SDS011;57203;42.672;23.334;2023-02-01T02:38:44;4.9;;;2.4;;
69917;SDS011;57203;42.672;23.334;2023-02-01T02:39:45;3.1;;;2.8;;
69917;SDS011;57203;42.672;23.334;2023-02-01T02:40:44;4.9;;;2.5;;
69917;SDS011;57203;42.672;23.334;2023-02-01T02:41:45;3.3;;;3.0;;
69917;SDS011;57203;42.672;23.334;2023-02-01T02:42:43;7.1;;;2.6;;
69917;SDS011;57203;42.672;23.334;2023-02-01T02:43:43;5.5;;;3.0;;
69917;SDS011;57203;42.672;23.334;2023-02-01T02:44:45;4.0;;;2.9;;
69917;SDS011;57203;42.672;23.334;2023-02-01T02:45:44;4.0;;;2.4;;
69917;SDS011;57203;42.672;23.334;2023-02-01T02:46:44;3.3;;;2.9;;
69917;SDS011;57203;42.672;23.334;2023-02-01T02:47:44;6.0;;;2.5;;
69917;SDS011;57203;42.672;23.334;2023-02-01T02:48:44;3.1;;;2.7;;
69917;SDS011;57203;42.672;23.334;2023-02-01T02:49:44;4.3;;;2.9;;
69917;SDS011;57203;42.672;23.334;2023-02-01T02:50:44;6.7;;;2.4;;
69917;SDS011;57203;42.672;23.334;2023-02-01T02:51:44;3.9;;;3.1;;
69917;SDS011;57203;42.672;23.334;2023-02-01T02:52:45;6.4;;;2.9;;
69917;SDS011;57203;42.672;23.334;2023-02-01T02:54:45;3.4;;;3.0;;
69917;SDS011;57203;42.672;23.334;2023-02-01T02:56:44;3.6;;;2.9;;
69917;SDS011;57203;42.672;23.334;2023-02-01T02:57:44;4.8;;;2.7;;
69917;SDS011;57203;42.672;23.334;2023-02-01T02:58:44;3.9;;;2.8;;
69917;SDS011;57203;42.672;23.334;2023-02-01T02:59:45;4.0;;;3.0;;
69917;SDS011;57203;42.672;23.334;2023-02-01T03:00:45;3.9;;;2.5;;
69917;SDS011;57203;42.672;23.334;2023-02-01T03:01:45;4.5;;;2.8;;
69917;SDS011;57203;42.672;23.334;2023-02-01T03:02:45;4.3;;;2.7;;
69917;SDS011;57203;42.672;23.334;2023-02-01T03:04:45;3.0;;;2.4;;
69917;SDS011;57203;42.672;23.334;2023-02-01T03:05:46;4.3;;;2.5;;
69917;SDS011;57203;42.672;23.334;2023-02-01T03:07:49;5.0;;;2.7;;
69917;SDS011;57203;42.672;23.334;2023-02-01T03:08:46;4.5;;;2.4;;
69917;SDS011;57203;42.672;23.334;2023-02-01T03:09:46;4.5;;;2.5;;
69917;SDS011;57203;42.672;23.334;2023-02-01T03:10:48;3.8;;;1.8;;
69917;SDS011;57203;42.672;23.334;2023-02-01T03:11:46;4.0;;;2.3;;
69917;SDS011;57203;42.672;23.334;2023-02-01T03:12:46;4.3;;;2.2;;
69917;SDS011;57203;42.672;23.334;2023-02-01T03:15:48;5.6;;;1.8;;
69917;SDS011;57203;42.672;23.334;2023-02-01T03:16:47;2.7;;;2.0;;
69917;SDS011;57203;42.672;23.334;2023-02-01T03:17:47;3.5;;;2.1;;
69917;SDS011;57203;42.672;23.334;2023-02-01T03:18:49;5.6;;;2.0;;
69917;SDS011;57203;42.672;23.334;2023-02-01T03:19:48;2.6;;;2.3;;
69917;SDS011;57203;42.672;23.334;2023-02-01T03:21:48;4.3;;;2.2;;
69917;SDS011;57203;42.672;23.334;2023-02-01T03:22:48;3.3;;;2.5;;
69917;SDS011;57203;42.672;23.334;2023-02-01T03:23:48;5.2;;;2.2;;
69917;SDS011;57203;42.672;23.334;2023-02-01T03:24:48;4.3;;;2.0;;
69917;SDS011;57203;42.672;23.334;2023-02-01T03:25:48;3.4;;;2.4;;
69917;SDS011;57203;42.672;23.334;2023-02-01T03:26:49;2.9;;;2.0;;
69917;SDS011;57203;42.672;23.334;2023-02-01T03:28:49;2.7;;;1.9;;
69917;SDS011;57203;42.672;23.334;2023-02-01T03:29:49;2.7;;;2.0;;
69917;SDS011;57203;42.672;23.334;2023-02-01T03:30:49;3.2;;;1.9;;
69917;SDS011;57203;42.672;23.334;2023-02-01T03:33:49;2.9;;;1.8;;
69917;SDS011;57203;42.672;23.334;2023-02-01T03:34:49;3.1;;;2.1;;
69917;SDS011;57203;42.672;23.334;2023-02-01T03:35:51;4.2;;;1.9;;
69917;SDS011;57203;42.672;23.334;2023-02-01T03:36:50;3.1;;;2.1;;
69917;SDS011;57203;42.672;23.334;2023-02-01T03:37:50;3.1;;;2.3;;
69917;SDS011;57203;42.672;23.334;2023-02-01T03:38:50;3.0;;;2.0;;
69917;SDS011;57203;42.672;23.334;2023-02-01T03:39:52;2.5;;;2.7;;
69917;SDS011;57203;42.672;23.334;2023-02-01T03:40:51;4.8;;;1.5;;
69917;SDS011;57203;42.672;23.334;2023-02-01T03:41:51;2.5;;;2.2;;
69917;SDS011;57203;42.672;23.334;2023-02-01T03:42:51;4.2;;;2.1;;
69917;SDS011;57203;42.672;23.334;2023-02-01T03:43:52;3.8;;;2.0;;
69917;SDS011;57203;42.672;23.334;2023-02-01T03:44:51;3.6;;;1.9;;
69917;SDS011;57203;42.672;23.334;2023-02-01T03:46:52;3.6;;;1.8;;
69917;SDS011;57203;42.672;23.334;2023-02-01T03:48:51;2.6;;;2.0;;
69917;SDS011;57203;42.672;23.334;2023-02-01T03:49:52;2.7;;;1.8;;
69917;SDS011;57203;42.672;23.334;2023-02-01T03:50:52;3.3;;;2.0;;
69917;SDS011;57203;42.672;23.334;2023-02-01T03:51:51;3.9;;;2.3;;
69917;SDS011;57203;42.672;23.334;2023-02-01T03:52:53;4.1;;;1.9;;
69917;SDS011;57203;42.672;23.334;2023-02-01T03:53:52;2.8;;;2.5;;
69917;SDS011;57203;42.672;23.334;2023-02-01T03:54:52;3.1;;;2.1;;
69917;SDS011;57203;42.672;23.334;2023-02-01T03:55:52;4.1;;;2.2;;
69917;SDS011;57203;42.672;23.334;2023-02-01T03:56:52;4.1;;;2.1;;
69917;SDS011;57203;42.672;23.334;2023-02-01T03:57:53;4.5;;;1.8;;
69917;SDS011;57203;42.672;23.334;2023-02-01T03:58:52;2.6;;;2.1;;
69917;SDS011;57203;42.672;23.334;2023-02-01T03:59:53;2.6;;;2.3;;
69917;SDS011;57203;42.672;23.334;2023-02-01T04:00:54;4.7;;;1.9;;
69917;SDS011;57203;42.672;23.334;2023-02-01T04:02:53;2.5;;;2.2;;
69917;SDS011;57203;42.672;23.334;2023-02-01T04:03:53;3.7;;;2.6;;
69917;SDS011;57203;42.672;23.334;2023-02-01T04:04:53;4.3;;;2.0;;
69917;SDS011;57203;42.672;23.334;2023-02-01T04:05:54;3.6;;;2.1;;
69917;SDS011;57203;42.672;23.334;2023-02-01T04:07:54;5.2;;;2.3;;
69917;SDS011;57203;42.672;23.334;2023-02-01T04:08:54;6.0;;;2.6;;
69917;SDS011;57203;42.672;23.334;2023-02-01T04:09:54;3.7;;;2.2;;
69917;SDS011;57203;42.672;23.334;2023-02-01T04:10:54;3.4;;;2.0;;
69917;SDS011;57203;42.672;23.334;2023-02-01T04:11:54;3.2;;;2.2;;
69917;SDS011;57203;42.672;23.334;2023-02-01T04:12:54;3.8;;;2.3;;
69917;SDS011;57203;42.672;23.334;2023-02-01T04:13:55;3.5;;;2.2;;
69917;SDS011;57203;42.672;23.334;2023-02-01T04:14:55;2.9;;;2.5;;
69917;SDS011;57203;42.672;23.334;2023-02-01T04:15:55;3.2;;;2.4;;
69917;SDS011;57203;42.672;23.334;2023-02-01T04:16:55;4.0;;;2.1;;
69917;SDS011;57203;42.672;23.334;2023-02-01T04:17:55;4.5;;;2.5;;
69917;SDS011;57203;42.672;23.334;2023-02-01T04:18:55;4.5;;;1.6;;
69917;SDS011;57203;42.672;23.334;2023-02-01T04:19:55;2.7;;;2.4;;
69917;SDS011;57203;42.672;23.334;2023-02-01T04:20:56;3.5;;;2.3;;
69917;SDS011;57203;42.672;23.334;2023-02-01T04:21:56;3.6;;;2.6;;
69917;SDS011;57203;42.672;23.334;2023-02-01T04:22:56;3.8;;;2.1;;
69917;SDS011;57203;42.672;23.334;2023-02-01T04:23:56;3.2;;;2.5;;
69917;SDS011;57203;42.672;23.334;2023-02-01T04:24:56;3.4;;;2.4;;
69917;SDS011;57203;42.672;23.334;2023-02-01T04:26:56;2.9;;;2.5;;
69917;SDS011;57203;42.672;23.334;2023-02-01T04:27:57;4.0;;;2.3;;
69917;SDS011;57203;42.672;23.334;2023-02-01T04:28:57;4.0;;;2.4;;
69917;SDS011;57203;42.672;23.334;2023-02-01T04:30:57;3.3;;;2.6;;
69917;SDS011;57203;42.672;23.334;2023-02-01T04:31:57;2.8;;;2.5;;
69917;SDS011;57203;42.672;23.334;2023-02-01T04:32:57;3.7;;;2.8;;
69917;SDS011;57203;42.672;23.334;2023-02-01T04:33:57;6.0;;;2.4;;
69917;SDS011;57203;42.672;23.334;2023-02-01T04:34:58;3.9;;;2.9;;
69917;SDS011;57203;42.672;23.334;2023-02-01T04:36:58;4.6;;;3.0;;
69917;SDS011;57203;42.672;23.334;2023-02-01T04:37:58;5.6;;;2.7;;
69917;SDS011;57203;42.672;23.334;2023-02-01T04:38:58;4.9;;;3.4;;
69917;SDS011;57203;42.672;23.334;2023-02-01T04:39:58;4.9;;;2.5;;
69917;SDS011;57203;42.672;23.334;2023-02-01T04:40:58;5.1;;;2.8;;
69917;SDS011;57203;42.672;23.334;2023-02-01T04:41:59;3.3;;;2.3;;
69917;SDS011;57203;42.672;23.334;2023-02-01T04:43:00;3.9;;;2.8;;
69917;SDS011;57203;42.672;23.334;2023-02-01T04:43:59;3.4;;;3.0;;
69917;SDS011;57203;42.672;23.334;2023-02-01T04:45:59;5.0;;;3.2;;
69917;SDS011;57203;42.672;23.334;2023-02-01T04:46:59;5.2;;;3.3;;
69917;SDS011;57203;42.672;23.334;2023-02-01T04:47:59;5.3;;;2.9;;
69917;SDS011;57203;42.672;23.334;2023-02-01T04:49:00;4.0;;;3.2;;
69917;SDS011;57203;42.672;23.334;2023-02-01T04:52:00;3.5;;;3.5;;
69917;SDS011;57203;42.672;23.334;2023-02-01T04:53:00;4.9;;;3.1;;
69917;SDS011;57203;42.672;23.334;2023-02-01T04:54:00;4.2;;;2.7;;
69917;SDS011;57203;42.672;23.334;2023-02-01T04:55:00;3.8;;;3.3;;
69917;SDS011;57203;42.672;23.334;2023-02-01T04:56:00;4.9;;;3.0;;
69917;SDS011;57203;42.672;23.334;2023-02-01T04:57:01;4.3;;;3.6;;
69917;SDS011;57203;42.672;23.334;2023-02-01T04:58:01;6.2;;;3.1;;
69917;SDS011;57203;42.672;23.334;2023-02-01T04:59:01;5.9;;;3.4;;
69917;SDS011;57203;42.672;23.334;2023-02-01T05:01:02;5.1;;;3.5;;
69917;SDS011;57203;42.672;23.334;2023-02-01T05:02:01;4.4;;;2.6;;
69917;SDS011;57203;42.672;23.334;2023-02-01T05:03:02;5.9;;;3.1;;
69917;SDS011;57203;42.672;23.334;2023-02-01T05:05:02;5.4;;;2.8;;
69917;SDS011;57203;42.672;23.334;2023-02-01T05:06:02;4.4;;;3.0;;
69917;SDS011;57203;42.672;23.334;2023-02-01T05:07:02;5.5;;;3.4;;
69917;SDS011;57203;42.672;23.334;2023-02-01T05:08:02;5.4;;;3.0;;
69917;SDS011;57203;42.672;23.334;2023-02-01T05:09:02;4.4;;;3.2;;
69917;SDS011;57203;42.672;23.334;2023-02-01T05:10:03;4.6;;;3.4;;
69917;SDS011;57203;42.672;23.334;2023-02-01T05:11:03;6.1;;;3.3;;
69917;SDS011;57203;42.672;23.334;2023-02-01T05:13:03;6.4;;;2.9;;
69917;SDS011;57203;42.672;23.334;2023-02-01T05:14:03;4.9;;;3.3;;
69917;SDS011;57203;42.672;23.334;2023-02-01T05:16:03;6.2;;;2.9;;
69917;SDS011;57203;42.672;23.334;2023-02-01T05:17:03;4.8;;;2.8;;
69917;SDS011;57203;42.672;23.334;2023-02-01T05:18:04;5.5;;;3.2;;
69917;SDS011;57203;42.672;23.334;2023-02-01T05:19:04;5.5;;;3.1;;
69917;SDS011;57203;42.672;23.334;2023-02-01T05:21:04;4.2;;;2.9;;
69917;SDS011;57203;42.672;23.334;2023-02-01T05:22:04;4.2;;;2.5;;
69917;SDS011;57203;42.672;23.334;2023-02-01T05:23:04;4.2;;;3.5;;
69917;SDS011;57203;42.672;23.334;2023-02-01T05:24:04;5.7;;;3.3;;
69917;SDS011;57203;42.672;23.334;2023-02-01T05:25:05;6.1;;;3.2;;
69917;SDS011;57203;42.672;23.334;2023-02-01T05:26:05;6.8;;;3.1;;
69917;SDS011;57203;42.672;23.334;2023-02-01T05:27:05;4.3;;;3.6;;
69917;SDS011;57203;42.672;23.334;2023-02-01T05:28:05;4.6;;;2.9;;
69917;SDS011;57203;42.672;23.334;2023-02-01T05:30:05;3.6;;;3.1;;
69917;SDS011;57203;42.672;23.334;2023-02-01T05:31:09;3.6;;;2.7;;
69917;SDS011;57203;42.672;23.334;2023-02-01T05:32:05;4.1;;;3.3;;
69917;SDS011;57203;42.672;23.334;2023-02-01T05:33:05;5.4;;;3.2;;
69917;SDS011;57203;42.672;23.334;2023-02-01T05:35:06;4.6;;;3.3;;
69917;SDS011;57203;42.672;23.334;2023-02-01T05:37:06;4.1;;;3.4;;
69917;SDS011;57203;42.672;23.334;2023-02-01T05:38:06;5.9;;;3.3;;
69917;SDS011;57203;42.672;23.334;2023-02-01T05:39:06;5.4;;;3.2;;
69917;SDS011;57203;42.672;23.334;2023-02-01T05:40:07;5.1;;;3.7;;
69917;SDS011;57203;42.672;23.334;2023-02-01T05:41:07;6.1;;;3.5;;
69917;SDS011;57203;42.672;23.334;2023-02-01T05:42:07;4.7;;;2.9;;
69917;SDS011;57203;42.672;23.334;2023-02-01T05:43:07;4.1;;;3.2;;
69917;SDS011;57203;42.672;23.334;2023-02-01T05:44:07;6.0;;;3.0;;
69917;SDS011;57203;42.672;23.334;2023-02-01T05:45:08;4.8;;;3.5;;
69917;SDS011;57203;42.672;23.334;2023-02-01T05:46:07;5.4;;;3.7;;
69917;SDS011;57203;42.672;23.334;2023-02-01T05:47:08;5.2;;;3.5;;
69917;SDS011;57203;42.672;23.334;2023-02-01T05:48:08;5.2;;;3.6;;
69917;SDS011;57203;42.672;23.334;2023-02-01T05:50:08;5.3;;;3.0;;
69917;SDS011;57203;42.672;23.334;2023-02-01T05:51:08;3.7;;;3.2;;
69917;SDS011;57203;42.672;23.334;2023-02-01T05:52:08;5.3;;;3.0;;
69917;SDS011;57203;42.672;23.334;2023-02-01T05:53:08;5.3;;;3.4;;
69917;SDS011;57203;42.672;23.334;2023-02-01T05:54:08;5.9;;;3.5;;
69917;SDS011;57203;42.672;23.334;2023-02-01T05:56:09;6.1;;;3.4;;
69917;SDS011;57203;42.672;23.334;2023-02-01T05:57:09;5.2;;;3.3;;
69917;SDS011;57203;42.672;23.334;2023-02-01T05:58:09;5.5;;;3.6;;
69917;SDS011;57203;42.672;23.334;2023-02-01T05:59:09;7.8;;;2.6;;
69917;SDS011;57203;42.672;23.334;2023-02-01T06:00:10;3.7;;;3.3;;
69917;SDS011;57203;42.672;23.334;2023-02-01T06:01:09;9.0;;;2.9;;
69917;SDS011;57203;42.672;23.334;2023-02-01T06:02:10;4.4;;;3.2;;
69917;SDS011;57203;42.672;23.334;2023-02-01T06:03:10;6.9;;;2.7;;
69917;SDS011;57203;42.672;23.334;2023-02-01T06:04:10;4.3;;;3.2;;
69917;SDS011;57203;42.672;23.334;2023-02-01T06:05:10;4.9;;;3.1;;
69917;SDS011;57203;42.672;23.334;2023-02-01T06:06:10;4.0;;;2.8;;
69917;SDS011;57203;42.672;23.334;2023-02-01T06:07:10;6.9;;;3.2;;
69917;SDS011;57203;42.672;23.334;2023-02-01T06:08:10;5.1;;;2.4;;
69917;SDS011;57203;42.672;23.334;2023-02-01T06:09:11;3.9;;;2.7;;
69917;SDS011;57203;42.672;23.334;2023-02-01T06:10:11;6.7;;;2.5;;
69917;SDS011;57203;42.672;23.334;2023-02-01T06:11:11;5.2;;;2.7;;
69917;SDS011;57203;42.672;23.334;2023-02-01T06:12:11;5.3;;;2.6;;
69917;SDS011;57203;42.672;23.334;2023-02-01T06:13:13;7.3;;;3.0;;
69917;SDS011;57203;42.672;23.334;2023-02-01T06:14:11;3.8;;;3.2;;
69917;SDS011;57203;42.672;23.334;2023-02-01T06:15:11;4.6;;;2.4;;
69917;SDS011;57203;42.672;23.334;2023-02-01T06:17:12;3.3;;;3.0;;
69917;SDS011;57203;42.672;23.334;2023-02-01T06:18:12;6.3;;;2.6;;
69917;SDS011;57203;42.672;23.334;2023-02-01T06:19:12;3.2;;;2.5;;
69917;SDS011;57203;42.672;23.334;2023-02-01T06:20:13;4.7;;;2.9;;
69917;SDS011;57203;42.672;23.334;2023-02-01T06:22:12;4.0;;;2.3;;
69917;SDS011;57203;42.672;23.334;2023-02-01T06:23:13;6.1;;;2.5;;
69917;SDS011;57203;42.672;23.334;2023-02-01T06:24:13;4.0;;;2.9;;
69917;SDS011;57203;42.672;23.334;2023-02-01T06:25:13;4.3;;;2.7;;
69917;SDS011;57203;42.672;23.334;2023-02-01T06:26:13;5.7;;;2.8;;
69917;SDS011;57203;42.672;23.334;2023-02-01T06:27:13;4.2;;;2.7;;
69917;SDS011;57203;42.672;23.334;2023-02-01T06:29:13;4.5;;;3.0;;
69917;SDS011;57203;42.672;23.334;2023-02-01T06:30:14;6.4;;;2.2;;
69917;SDS011;57203;42.672;23.334;2023-02-01T06:31:14;5.4;;;2.7;;
69917;SDS011;57203;42.672;23.334;2023-02-01T06:32:14;5.6;;;2.9;;
69917;SDS011;57203;42.672;23.334;2023-02-01T06:33:14;5.6;;;2.2;;
69917;SDS011;57203;42.672;23.334;2023-02-01T06:34:14;5.6;;;2.5;;
69917;SDS011;57203;42.672;23.334;2023-02-01T06:35:14;5.6;;;2.3;;
69917;SDS011;57203;42.672;23.334;2023-02-01T06:36:14;3.5;;;2.5;;
69917;SDS011;57203;42.672;23.334;2023-02-01T06:37:15;5.7;;;2.4;;
69917;SDS011;57203;42.672;23.334;2023-02-01T06:38:15;7.6;;;2.9;;
69917;SDS011;57203;42.672;23.334;2023-02-01T06:39:15;6.6;;;2.2;;
69917;SDS011;57203;42.672;23.334;2023-02-01T06:40:15;4.4;;;2.4;;
69917;SDS011;57203;42.672;23.334;2023-02-01T06:41:15;4.1;;;2.3;;
69917;SDS011;57203;42.672;23.334;2023-02-01T06:42:15;2.9;;;2.2;;
69917;SDS011;57203;42.672;23.334;2023-02-01T06:43:15;3.1;;;2.3;;
69917;SDS011;57203;42.672;23.334;2023-02-01T06:44:16;5.6;;;2.5;;
69917;SDS011;57203;42.672;23.334;2023-02-01T06:45:16;3.8;;;2.4;;
69917;SDS011;57203;42.672;23.334;2023-02-01T06:46:16;5.7;;;2.9;;
69917;SDS011;57203;42.672;23.334;2023-02-01T06:48:16;5.3;;;2.4;;
69917;SDS011;57203;42.672;23.334;2023-02-01T06:49:16;5.3;;;2.7;;
69917;SDS011;57203;42.672;23.334;2023-02-01T06:52:17;4.8;;;2.5;;
69917;SDS011;57203;42.672;23.334;2023-02-01T06:53:17;4.1;;;2.8;;
69917;SDS011;57203;42.672;23.334;2023-02-01T06:54:17;5.6;;;2.4;;
69917;SDS011;57203;42.672;23.334;2023-02-01T06:55:17;4.3;;;2.9;;
69917;SDS011;57203;42.672;23.334;2023-02-01T06:56:17;4.0;;;3.5;;
69917;SDS011;57203;42.672;23.334;2023-02-01T06:57:17;6.7;;;3.3;;
69917;SDS011;57203;42.672;23.334;2023-02-01T06:58:17;6.4;;;3.2;;
69917;SDS011;57203;42.672;23.334;2023-02-01T06:59:18;6.4;;;2.3;;
69917;SDS011;57203;42.672;23.334;2023-02-01T07:00:18;5.5;;;2.5;;
69917;SDS011;57203;42.672;23.334;2023-02-01T07:01:18;3.5;;;2.8;;
69917;SDS011;57203;42.672;23.334;2023-02-01T07:02:18;5.2;;;2.6;;
69917;SDS011;57203;42.672;23.334;2023-02-01T07:03:18;4.8;;;2.4;;
69917;SDS011;57203;42.672;23.334;2023-02-01T07:04:18;5.3;;;2.5;;
69917;SDS011;57203;42.672;23.334;2023-02-01T07:05:18;4.5;;;2.3;;
69917;SDS011;57203;42.672;23.334;2023-02-01T07:06:19;4.6;;;2.7;;
69917;SDS011;57203;42.672;23.334;2023-02-01T07:07:19;5.6;;;2.5;;